createdAt,value
2018-02-25T00:00:17.716Z,5.12
2018-02-25T00:02:47.229Z,3.60
2018-02-25T00:05:15.220Z,4.68
2018-02-25T00:07:43.212Z,3.97
2018-02-25T00:10:11.204Z,2.10
2018-02-25T00:12:39.204Z,3.30
2018-02-25T00:15:07.197Z,3.85
2018-02-25T00:17:35.208Z,3.83
2018-02-25T00:20:03.476Z,3.00
2018-02-25T00:22:31.483Z,4.43
2018-02-25T00:24:59.475Z,4.72
2018-02-25T00:27:27.488Z,4.72
2018-02-25T00:29:56.278Z,4.45
2018-02-25T00:32:24.278Z,4.82
2018-02-25T00:34:53.990Z,4.45
2018-02-25T00:37:22.763Z,2.33
2018-02-25T00:39:50.783Z,4.75
2018-02-25T00:42:20.120Z,5.72
2018-02-25T00:44:48.108Z,3.83
2018-02-25T00:47:16.113Z,4.85
2018-02-25T00:49:44.100Z,4.85
2018-02-25T00:52:12.112Z,5.82
2018-02-25T00:54:40.113Z,5.65
2018-02-25T00:57:08.883Z,3.92
2018-02-25T00:59:36.876Z,4.12
2018-02-25T01:02:04.877Z,3.53
2018-02-25T01:04:33.661Z,3.35
2018-02-25T01:07:01.652Z,3.03
2018-02-25T01:09:30.424Z,3.55
2018-02-25T01:11:58.432Z,5.25
2018-02-25T01:14:27.200Z,4.22
2018-02-25T01:16:55.199Z,7.03
2018-02-25T01:19:23.199Z,3.05
2018-02-25T01:21:51.224Z,5.12
2018-02-25T01:24:20.037Z,5.15
2018-02-25T01:26:48.041Z,3.20
2018-02-25T01:29:16.028Z,6.20
2018-02-25T01:31:44.481Z,4.10
2018-02-25T01:34:12.469Z,5.55
2018-02-25T01:36:40.482Z,6.05
2018-02-25T01:39:08.489Z,5.03
2018-02-25T01:41:37.248Z,4.00
2018-02-25T01:44:05.256Z,3.90
2018-02-25T01:46:33.244Z,4.72
2018-02-25T01:49:01.253Z,4.65
2018-02-25T01:51:30.017Z,4.12
2018-02-25T01:53:58.004Z,4.28
2018-02-25T01:56:26.012Z,4.15
2018-02-25T01:58:54.763Z,5.85
2018-02-25T02:01:22.772Z,4.97
2018-02-25T02:03:50.777Z,2.83
2018-02-25T02:06:19.523Z,4.35
2018-02-25T02:08:47.568Z,5.10
2018-02-25T02:11:15.573Z,6.03
2018-02-25T02:13:43.577Z,5.75
2018-02-25T02:16:11.576Z,3.28
2018-02-25T02:18:39.573Z,3.53
2018-02-25T02:21:08.280Z,4.25
2018-02-25T02:23:36.291Z,4.22
2018-02-25T02:26:04.300Z,4.35
2018-02-25T02:28:32.299Z,4.40
2018-02-25T02:31:00.293Z,5.65
2018-02-25T02:33:28.296Z,3.08
2018-02-25T02:35:57.069Z,4.82
2018-02-25T02:38:25.061Z,4.32
2018-02-25T02:40:53.073Z,4.45
2018-02-25T02:43:21.860Z,6.32
2018-02-25T02:45:49.855Z,3.00
2018-02-25T02:48:17.844Z,3.92
2018-02-25T02:50:46.600Z,6.00
2018-02-25T02:53:14.604Z,7.22
2018-02-25T02:55:43.365Z,6.30
2018-02-25T02:58:11.374Z,2.92
2018-02-25T03:00:39.385Z,3.42
2018-02-25T03:03:08.141Z,4.60
2018-02-25T03:05:36.141Z,5.22
2018-02-25T03:08:04.132Z,4.53
2018-02-25T03:10:32.135Z,6.10
2018-02-25T03:13:00.888Z,5.30
2018-02-25T03:15:28.888Z,6.85
2018-02-25T03:17:56.896Z,2.40
2018-02-25T03:20:25.644Z,4.20
2018-02-25T03:22:53.661Z,4.93
2018-02-25T03:25:21.658Z,5.25
2018-02-25T03:27:49.651Z,3.60
2018-02-25T03:30:17.648Z,5.65
2018-02-25T03:32:45.649Z,3.15
2018-02-25T03:35:13.658Z,5.55
2018-02-25T03:37:41.653Z,3.50
2018-02-25T03:40:09.648Z,4.65
2018-02-25T03:42:38.417Z,4.95
2018-02-25T03:45:06.428Z,6.62
2018-02-25T03:47:34.428Z,4.60
2018-02-25T03:50:03.198Z,5.75
2018-02-25T03:52:31.200Z,3.78
2018-02-25T03:54:59.968Z,4.55
2018-02-25T03:57:27.960Z,3.70
2018-02-25T03:59:55.960Z,4.30
2018-02-25T04:02:24.740Z,5.60
2018-02-25T04:04:53.477Z,5.10
2018-02-25T04:07:22.245Z,4.35
2018-02-25T04:09:50.247Z,6.22
2018-02-25T04:12:18.997Z,3.50
2018-02-25T04:14:47.046Z,3.17
2018-02-25T04:17:15.009Z,3.97
2018-02-25T04:19:42.997Z,5.05
2018-02-25T04:22:12.392Z,4.15
2018-02-25T04:24:40.405Z,4.40
2018-02-25T04:27:09.162Z,3.72
2018-02-25T04:29:37.170Z,5.00
2018-02-25T04:32:05.173Z,8.65
2018-02-25T04:34:33.924Z,5.87
2018-02-25T04:37:01.925Z,4.57
2018-02-25T04:39:29.929Z,7.15
2018-02-25T04:41:58.685Z,3.25
2018-02-25T04:44:26.708Z,4.50
2018-02-25T04:46:55.491Z,5.22
2018-02-25T04:49:23.489Z,4.90
2018-02-25T04:51:52.265Z,3.42
2018-02-25T04:54:20.268Z,4.93
2018-02-25T04:56:49.024Z,4.53
2018-02-25T04:59:17.033Z,4.45
2018-02-25T05:01:45.035Z,4.62
2018-02-25T05:04:13.024Z,4.30
2018-02-25T05:06:41.812Z,5.05
2018-02-25T05:09:09.812Z,4.12
2018-02-25T05:11:37.800Z,4.75
2018-02-25T05:14:06.572Z,4.95
2018-02-25T05:16:34.576Z,4.10
2018-02-25T05:19:03.336Z,5.18
2018-02-25T05:21:31.350Z,6.40
2018-02-25T05:23:59.384Z,2.85
2018-02-25T05:26:27.396Z,2.70
2018-02-25T05:28:55.404Z,4.55
2018-02-25T05:31:24.179Z,2.62
2018-02-25T05:33:52.168Z,4.40
2018-02-25T05:36:20.169Z,4.07
2018-02-25T05:38:48.932Z,4.55
2018-02-25T05:41:16.931Z,2.15
2018-02-25T05:43:44.929Z,4.93
2018-02-25T05:46:12.937Z,5.68
2018-02-25T05:48:40.934Z,3.85
2018-02-25T05:51:08.933Z,3.97
2018-02-25T05:53:36.940Z,5.62
2018-02-25T05:56:04.937Z,4.93
2018-02-25T05:58:32.940Z,4.82
2018-02-25T06:01:01.741Z,4.43
2018-02-25T06:03:30.504Z,4.15
2018-02-25T06:05:58.519Z,2.75
2018-02-25T06:08:27.293Z,1.50
2018-02-25T06:10:55.276Z,6.15
2018-02-25T06:13:23.296Z,3.60
2018-02-25T06:15:51.295Z,2.65
2018-02-25T06:18:19.280Z,4.25
2018-02-25T06:20:48.128Z,3.97
2018-02-25T06:23:17.636Z,4.15
2018-02-25T06:25:45.628Z,4.62
2018-02-25T06:28:13.629Z,5.18
2018-02-25T06:30:42.400Z,3.30
2018-02-25T06:33:10.380Z,3.37
2018-02-25T06:35:38.389Z,5.22
2018-02-25T06:38:07.165Z,1.92
2018-02-25T06:40:35.181Z,4.10
2018-02-25T06:43:04.600Z,5.35
2018-02-25T06:45:33.371Z,3.62
2018-02-25T06:48:01.819Z,3.83
2018-02-25T06:50:29.823Z,3.33
2018-02-25T06:52:57.820Z,2.85
2018-02-25T06:55:25.821Z,3.72
2018-02-25T06:57:53.823Z,2.97
2018-02-25T07:00:22.592Z,3.53
2018-02-25T07:02:50.581Z,3.08
2018-02-25T07:05:18.653Z,3.33
2018-02-25T07:07:46.652Z,2.05
2018-02-25T07:10:14.672Z,3.53
2018-02-25T07:12:42.681Z,5.35
2018-02-25T07:15:10.683Z,2.47
2018-02-25T07:17:38.677Z,4.37
2018-02-25T07:20:06.691Z,5.43
2018-02-25T07:22:35.464Z,3.60
2018-02-25T07:25:03.457Z,5.75
2018-02-25T07:27:31.465Z,5.75
2018-02-25T07:30:00.249Z,3.70
2018-02-25T07:32:28.225Z,4.05
2018-02-25T07:34:57.003Z,4.22
2018-02-25T07:37:25.013Z,4.40
2018-02-25T07:39:53.773Z,4.37
2018-02-25T07:42:21.887Z,5.12
2018-02-25T07:44:50.580Z,5.47
2018-02-25T07:47:18.604Z,3.10
2018-02-25T07:49:46.642Z,4.37
2018-02-25T07:52:14.665Z,4.03
2018-02-25T07:54:42.648Z,3.95
2018-02-25T07:57:10.656Z,5.35
2018-02-25T07:59:38.665Z,4.45
2018-02-25T08:02:06.649Z,4.37
2018-02-25T08:04:34.648Z,4.00
2018-02-25T08:07:02.665Z,4.80
2018-02-25T08:09:30.664Z,3.10
2018-02-25T08:11:58.669Z,5.37
2018-02-25T08:14:26.689Z,4.50
2018-02-25T08:16:55.448Z,7.57
2018-02-25T08:19:23.470Z,3.78
2018-02-25T08:21:51.815Z,6.12
2018-02-25T08:24:19.775Z,5.12
2018-02-25T08:26:47.780Z,5.65
2018-02-25T08:29:16.014Z,3.45
2018-02-25T08:31:43.999Z,3.60
2018-02-25T08:34:12.003Z,4.47
2018-02-25T08:36:40.057Z,3.72
2018-02-25T08:39:08.090Z,3.75
2018-02-25T08:41:36.101Z,4.75
2018-02-25T08:44:04.101Z,3.65
2018-02-25T08:46:32.097Z,2.08
2018-02-25T08:49:00.874Z,3.50
2018-02-25T08:51:28.880Z,4.57
2018-02-25T08:53:57.639Z,3.37
2018-02-25T08:56:25.656Z,3.95
2018-02-25T08:58:53.666Z,3.78
2018-02-25T09:01:22.850Z,4.30
2018-02-25T09:03:50.847Z,3.53
2018-02-25T09:06:19.619Z,3.75
2018-02-25T09:08:47.607Z,4.10
2018-02-25T09:11:15.612Z,4.25
2018-02-25T09:13:43.612Z,2.62
2018-02-25T09:16:11.608Z,3.33
2018-02-25T09:18:39.621Z,4.43
2018-02-25T09:21:07.616Z,3.92
2018-02-25T09:23:35.604Z,2.97
2018-02-25T09:26:03.617Z,4.03
2018-02-25T09:28:32.403Z,3.97
2018-02-25T09:31:00.388Z,3.37
2018-02-25T09:33:29.200Z,4.07
2018-02-25T09:35:57.995Z,2.70
2018-02-25T09:38:25.952Z,3.40
2018-02-25T09:40:53.966Z,3.72
2018-02-25T09:43:22.768Z,2.92
2018-02-25T09:45:51.824Z,3.65
2018-02-25T09:48:20.693Z,3.45
2018-02-25T09:50:48.697Z,4.50
2018-02-25T09:53:16.717Z,3.15
2018-02-25T09:55:44.715Z,2.80
2018-02-25T09:58:12.726Z,3.25
2018-02-25T10:00:40.713Z,3.05
2018-02-25T10:03:08.727Z,4.95
2018-02-25T10:05:37.605Z,3.00
2018-02-25T10:08:05.600Z,3.28
2018-02-25T10:10:33.603Z,2.75
2018-02-25T10:13:01.605Z,2.65
2018-02-25T10:15:29.596Z,3.00
2018-02-25T10:17:58.372Z,4.22
2018-02-25T10:20:26.392Z,4.12
2018-02-25T10:22:54.392Z,3.50
2018-02-25T10:25:22.397Z,3.12
2018-02-25T10:27:50.412Z,3.47
2018-02-25T10:30:18.406Z,3.55
2018-02-25T10:32:46.437Z,3.20
2018-02-25T10:35:14.421Z,3.58
2018-02-25T10:37:42.417Z,4.35
2018-02-25T10:40:10.421Z,3.70
2018-02-25T10:42:38.432Z,2.95
2018-02-25T10:45:07.184Z,2.78
2018-02-25T10:47:35.205Z,3.90
2018-02-25T10:50:03.188Z,3.22
2018-02-25T10:52:31.185Z,3.87
2018-02-25T10:54:59.962Z,4.07
2018-02-25T10:57:27.973Z,2.80
2018-02-25T10:59:55.969Z,3.83
2018-02-25T11:02:23.978Z,4.15
2018-02-25T11:04:51.991Z,3.20
2018-02-25T11:07:19.973Z,4.60
2018-02-25T11:09:48.745Z,3.22
2018-02-25T11:12:16.740Z,4.00
2018-02-25T11:14:44.745Z,4.28
2018-02-25T11:17:12.752Z,4.40
2018-02-25T11:19:40.751Z,2.58
2018-02-25T11:22:08.792Z,3.40
2018-02-25T11:24:37.575Z,3.12
2018-02-25T11:27:05.577Z,3.60
2018-02-25T11:29:33.565Z,3.55
2018-02-25T11:32:01.564Z,2.25
2018-02-25T11:34:30.331Z,2.15
2018-02-25T11:36:58.332Z,3.33
2018-02-25T11:39:26.340Z,3.12
2018-02-25T11:41:55.104Z,3.70
2018-02-25T11:44:23.088Z,2.55
2018-02-25T11:46:52.041Z,2.45
2018-02-25T11:49:20.028Z,2.97
2018-02-25T11:51:48.020Z,2.10
2018-02-25T11:54:16.087Z,3.20
2018-02-25T11:56:44.099Z,2.30
2018-02-25T11:59:12.092Z,2.33
2018-02-25T12:01:40.132Z,2.97
2018-02-25T12:04:08.140Z,2.28
2018-02-25T12:06:36.708Z,3.08
2018-02-25T12:09:04.717Z,3.15
2018-02-25T12:11:32.720Z,2.72
2018-02-25T12:14:00.708Z,2.28
2018-02-25T12:16:28.714Z,3.70
2018-02-25T12:18:56.704Z,3.12
2018-02-25T12:21:24.692Z,3.17
2018-02-25T12:23:53.460Z,3.60
2018-02-25T12:26:21.460Z,2.37
2018-02-25T12:28:50.212Z,2.40
2018-02-25T12:31:18.290Z,3.60
2018-02-25T12:33:47.031Z,2.25
2018-02-25T12:36:15.029Z,2.42
2018-02-25T12:38:43.792Z,2.50
2018-02-25T12:41:11.796Z,2.78
2018-02-25T12:43:39.812Z,2.10
2018-02-25T12:46:07.893Z,3.10
2018-02-25T12:48:35.868Z,2.75
2018-02-25T12:51:04.621Z,3.12
2018-02-25T12:53:32.693Z,2.10
2018-02-25T12:56:00.664Z,2.83
2018-02-25T12:58:28.652Z,2.67
2018-02-25T13:00:56.650Z,2.72
2018-02-25T13:03:24.674Z,3.97
2018-02-25T13:05:54.152Z,1.83
2018-02-25T13:08:22.156Z,2.03
2018-02-25T13:10:50.828Z,2.28
2018-02-25T13:13:18.872Z,1.90
2018-02-25T13:15:47.628Z,2.50
2018-02-25T13:18:15.629Z,2.58
2018-02-25T13:20:43.900Z,2.30
2018-02-25T13:23:11.886Z,2.05
2018-02-25T13:25:39.884Z,1.90
2018-02-25T13:28:07.864Z,2.62
2018-02-25T13:30:35.864Z,2.53
2018-02-25T13:33:03.861Z,2.85
2018-02-25T13:35:31.848Z,3.08
2018-02-25T13:37:59.851Z,1.83
2018-02-25T13:40:27.852Z,2.55
2018-02-25T13:42:55.844Z,1.92
2018-02-25T13:45:24.176Z,3.47
2018-02-25T13:47:52.940Z,2.60
2018-02-25T13:50:20.936Z,2.70
2018-02-25T13:52:48.958Z,2.58
2018-02-25T13:55:16.949Z,2.00
2018-02-25T13:57:44.937Z,2.45
2018-02-25T14:00:12.932Z,2.50
2018-02-25T14:02:40.936Z,1.77
2018-02-25T14:05:08.956Z,2.17
2018-02-25T14:07:37.724Z,1.80
2018-02-25T14:10:05.721Z,2.05
2018-02-25T14:12:33.708Z,2.00
2018-02-25T14:15:02.468Z,1.90
2018-02-25T14:17:30.465Z,1.80
2018-02-25T14:19:58.448Z,1.73
2018-02-25T14:22:26.444Z,2.03
2018-02-25T14:24:54.452Z,2.10
2018-02-25T14:27:22.432Z,1.83
2018-02-25T14:29:51.984Z,1.42
2018-02-25T14:32:20.002Z,2.53
2018-02-25T14:34:47.984Z,2.08
2018-02-25T14:37:16.018Z,2.00
2018-02-25T14:39:44.754Z,1.80
2018-02-25T14:42:13.488Z,1.80
2018-02-25T14:44:42.256Z,1.75
2018-02-25T14:47:10.252Z,2.30
2018-02-25T14:49:38.237Z,1.90
2018-02-25T14:52:06.236Z,1.58
2018-02-25T14:54:34.996Z,2.53
2018-02-25T14:57:03.002Z,1.80
2018-02-25T14:59:30.997Z,1.50
2018-02-25T15:01:59.356Z,1.90
2018-02-25T15:04:27.341Z,1.65
2018-02-25T15:06:55.367Z,1.80
2018-02-25T15:09:23.388Z,1.70
2018-02-25T15:11:51.368Z,2.47
2018-02-25T15:14:19.363Z,1.80
2018-02-25T15:16:47.368Z,2.70
2018-02-25T15:19:15.358Z,2.22
2018-02-25T15:21:43.356Z,1.50
2018-02-25T15:24:12.120Z,1.60
2018-02-25T15:26:40.119Z,1.73
2018-02-25T15:29:08.117Z,1.50
2018-02-25T15:31:36.880Z,1.70
2018-02-25T15:34:04.860Z,2.53
2018-02-25T15:36:32.865Z,2.72
2018-02-25T15:39:00.875Z,2.10
2018-02-25T15:41:29.633Z,2.00
2018-02-25T15:43:57.637Z,2.05
2018-02-25T15:46:25.636Z,1.77
2018-02-25T15:48:54.384Z,2.50
2018-02-25T15:51:22.376Z,1.90
2018-02-25T15:53:50.376Z,2.42
2018-02-25T15:56:18.365Z,1.98
2018-02-25T15:58:46.364Z,2.25
2018-02-25T16:01:14.378Z,2.28
2018-02-25T16:03:42.363Z,2.20
2018-02-25T16:06:10.384Z,1.80
2018-02-25T16:08:38.388Z,1.40
2018-02-25T16:11:07.168Z,2.28
2018-02-25T16:13:35.172Z,1.40
2018-02-25T16:16:03.948Z,1.87
2018-02-25T16:18:31.932Z,2.28
2018-02-25T16:20:59.946Z,2.58
2018-02-25T16:23:28.708Z,3.25
2018-02-25T16:25:56.700Z,1.98
2018-02-25T16:28:25.499Z,2.70
2018-02-25T16:30:53.520Z,3.50
2018-02-25T16:33:22.272Z,2.05
2018-02-25T16:35:50.297Z,3.25
2018-02-25T16:38:19.065Z,3.28
2018-02-25T16:40:47.056Z,2.95
2018-02-25T16:43:15.064Z,2.65
2018-02-25T16:45:43.846Z,2.55
2018-02-25T16:48:13.336Z,2.40
2018-02-25T16:50:41.349Z,1.83
2018-02-25T16:53:09.415Z,3.03
2018-02-25T16:55:37.408Z,2.60
2018-02-25T16:58:06.172Z,3.12
2018-02-25T17:00:34.981Z,3.45
2018-02-25T17:03:02.968Z,2.90
2018-02-25T17:05:30.984Z,3.10
2018-02-25T17:07:58.997Z,2.35
2018-02-25T17:10:26.989Z,2.55
2018-02-25T17:12:54.994Z,2.70
2018-02-25T17:15:23.001Z,3.83
2018-02-25T17:17:50.985Z,2.87
2018-02-25T17:20:18.996Z,3.00
2018-02-25T17:22:47.794Z,3.03
2018-02-25T17:25:15.799Z,1.58
2018-02-25T17:27:43.809Z,3.15
2018-02-25T17:30:11.816Z,2.83
2018-02-25T17:32:39.817Z,3.42
2018-02-25T17:35:07.847Z,2.83
2018-02-25T17:37:35.844Z,4.20
2018-02-25T17:40:03.837Z,1.90
2018-02-25T17:42:31.836Z,2.95
2018-02-25T17:44:59.849Z,2.72
2018-02-25T17:47:28.618Z,2.35
2018-02-25T17:49:56.616Z,2.15
2018-02-25T17:52:25.396Z,1.60
2018-02-25T17:54:53.384Z,2.35
2018-02-25T17:57:22.069Z,1.60
2018-02-25T17:59:50.077Z,2.55
2018-02-25T18:02:18.081Z,1.48
2018-02-25T18:04:46.848Z,3.47
2018-02-25T18:07:14.854Z,1.73
2018-02-25T18:09:43.624Z,1.23
2018-02-25T18:12:12.009Z,1.90
2018-02-25T18:14:39.983Z,2.70
2018-02-25T18:17:08.000Z,2.28
2018-02-25T18:19:36.133Z,3.42
2018-02-25T18:22:04.136Z,1.60
2018-02-25T18:24:32.141Z,2.75
2018-02-25T18:27:00.153Z,2.42
2018-02-25T18:29:28.924Z,1.02
2018-02-25T18:31:58.429Z,1.70
2018-02-25T18:34:26.440Z,2.80
2018-02-25T18:36:55.221Z,2.08
2018-02-25T18:39:23.209Z,2.42
2018-02-25T18:41:51.208Z,1.30
2018-02-25T18:44:19.976Z,2.30
2018-02-25T18:46:47.970Z,2.22
2018-02-25T18:49:15.967Z,1.65
2018-02-25T18:51:44.732Z,2.08
2018-02-25T18:54:12.732Z,1.05
2018-02-25T18:56:40.732Z,1.77
2018-02-25T18:59:08.737Z,1.83
2018-02-25T19:01:36.724Z,2.35
2018-02-25T19:04:04.732Z,1.08
2018-02-25T19:06:32.773Z,3.05
2018-02-25T19:09:01.529Z,2.25
2018-02-25T19:11:29.556Z,2.00
2018-02-25T19:13:58.332Z,2.80
2018-02-25T19:16:26.313Z,3.65
2018-02-25T19:18:54.324Z,2.22
2018-02-25T19:21:22.334Z,2.60
2018-02-25T19:23:50.324Z,2.58
2018-02-25T19:26:18.329Z,2.05
2018-02-25T19:28:46.341Z,2.72
2018-02-25T19:31:14.371Z,2.10
2018-02-25T19:33:42.344Z,2.25
2018-02-25T19:36:16.121Z,2.67
2018-02-25T19:41:48.058Z,2.65
2018-02-25T19:44:16.816Z,2.75
2018-02-25T19:46:44.834Z,1.95
2018-02-25T19:49:12.812Z,1.73
2018-02-25T19:51:41.593Z,2.15
2018-02-25T19:54:09.586Z,2.30
2018-02-25T19:56:37.593Z,2.00
2018-02-25T20:01:36.277Z,2.10
2018-02-25T20:04:04.284Z,1.40
2018-02-25T20:06:33.033Z,2.53
2018-02-25T20:09:01.054Z,1.52
2018-02-25T20:11:29.068Z,2.25
2018-02-25T20:13:57.065Z,3.33
2018-02-25T20:16:25.081Z,3.80
2018-02-25T20:18:53.086Z,2.25
2018-02-25T20:21:21.068Z,1.65
2018-02-25T20:23:49.075Z,3.60
2018-02-25T20:26:17.843Z,1.40
2018-02-25T20:28:45.841Z,1.55
2018-02-25T20:31:13.858Z,1.92
2018-02-25T20:33:42.608Z,1.62
2018-02-25T20:36:10.605Z,1.65
2018-02-25T20:38:38.628Z,1.85
2018-02-25T20:41:06.631Z,1.98
2018-02-25T20:43:34.616Z,1.48
2018-02-25T20:46:02.617Z,1.87
2018-02-25T20:48:30.629Z,2.75
2018-02-25T20:50:58.632Z,2.40
2018-02-25T20:53:26.661Z,2.08
2018-02-25T20:55:54.673Z,1.87
2018-02-25T20:58:22.667Z,2.75
2018-02-25T21:00:51.440Z,1.90
2018-02-25T21:03:21.449Z,1.65
2018-02-25T21:05:49.450Z,1.83
2018-02-25T21:08:17.457Z,1.60
2018-02-25T21:10:46.232Z,2.65
2018-02-25T21:13:14.225Z,1.48
2018-02-25T21:15:42.540Z,2.05
2018-02-25T21:18:11.327Z,3.08
2018-02-25T21:20:39.309Z,2.17
2018-02-25T21:23:07.310Z,2.20
2018-02-25T21:25:36.080Z,1.73
2018-02-25T21:28:04.080Z,1.55
2018-02-25T21:30:32.849Z,1.90
2018-02-25T21:33:00.856Z,2.72
2018-02-25T21:35:28.853Z,1.17
2018-02-25T21:37:56.900Z,2.90
2018-02-25T21:40:24.904Z,2.35
2018-02-25T21:42:53.661Z,1.95
2018-02-25T21:45:21.665Z,1.65
2018-02-25T21:47:49.665Z,1.77
2018-02-25T21:50:17.654Z,2.35
2018-02-25T21:52:45.655Z,1.73
2018-02-25T21:55:14.420Z,1.67
2018-02-25T21:57:48.156Z,1.10
2018-02-25T22:00:16.948Z,1.87
2018-02-25T22:02:50.760Z,1.90
2018-02-25T22:05:18.764Z,1.10
2018-02-25T22:07:48.861Z,2.58
2018-02-25T22:10:16.909Z,1.58
2018-02-25T22:12:44.867Z,1.45
2018-02-25T22:15:13.624Z,1.92
2018-02-25T22:17:41.637Z,2.10
2018-02-25T22:20:10.410Z,1.95
2018-02-25T22:22:38.399Z,1.85
2018-02-25T22:25:06.405Z,2.00
2018-02-25T22:27:35.220Z,1.60
2018-02-25T22:30:03.164Z,2.25
2018-02-25T22:32:31.173Z,2.28
2018-02-25T22:34:59.176Z,2.60
2018-02-25T22:37:27.177Z,1.40
2018-02-25T22:39:55.193Z,2.15
2018-02-25T22:42:23.192Z,1.70
2018-02-25T22:44:52.762Z,1.58
2018-02-25T22:47:21.506Z,3.10
2018-02-25T22:49:49.504Z,1.65
2018-02-25T22:52:18.265Z,2.00
2018-02-25T22:54:46.268Z,3.05
2018-02-25T22:57:14.281Z,2.22
2018-02-25T22:59:43.045Z,1.60
2018-02-25T23:02:11.053Z,2.33
2018-02-25T23:04:39.816Z,2.33
2018-02-25T23:07:07.813Z,2.80
2018-02-25T23:09:35.832Z,1.62
2018-02-25T23:12:04.612Z,2.20
2018-02-25T23:14:32.609Z,1.55
2018-02-25T23:17:01.380Z,1.55
2018-02-25T23:19:29.388Z,1.62
2018-02-25T23:21:58.156Z,2.55
2018-02-25T23:24:26.170Z,2.25
2018-02-25T23:26:54.201Z,2.10
2018-02-25T23:29:22.176Z,3.22
2018-02-25T23:31:50.176Z,3.97
2018-02-25T23:34:18.200Z,2.50
2018-02-25T23:36:47.312Z,1.87
2018-02-25T23:39:15.266Z,1.62
2018-02-25T23:41:43.269Z,2.03
2018-02-25T23:44:11.257Z,2.70
2018-02-25T23:46:40.028Z,2.45
2018-02-25T23:49:08.041Z,2.37
2018-02-25T23:51:36.797Z,2.67
2018-02-25T23:54:04.800Z,2.90
2018-02-25T23:56:32.834Z,1.50
2018-02-25T23:59:00.818Z,2.40
